map of ZCO home
ZCO - Airport
Location
City:  Temuco, Araucanía, Chile
Near (Alt.):Freire
Name:La Araucanía Airport
ICAO:SCQP
IATA:ZCO

Details
Type:Airport (Aerodrome, Airfield)
Latitude:38°55'33"S (-38.925832)
Longitude:72°39'05"W (-72.651388)
Elevation:321 ft (98 m)
Variation:6.55°E (WMM2015 magnetic declination)
-0.13° annual change
Runways:1
Longest:8005 × 148 ft (2440 × 45 m), paved

Weather
METAR:SCQP 201000Z 36001KT 0450 R01/0350V0650D FG VV002 04/04 Q1021
TAF:SCQP 201009Z 2012/2112 VRB02KT CAVOK TX16/2019Z TN04/2106Z
BECMG 2014/2016 26006KT SCT040
BECMG 2101/2103 VRB02KT CAVOK
BECMG 2106/2108 SCT040

Related Locations
Nearby:
Farthest:INC: 12370 mi / 19908 km
Yinchuan [Hedong], 64, CN

Find:

   beyond  
but within

Other Information
Maps:
NOTAMs:
Links:
Sources:

  
  • flag of Chile
  • flag of Araucanía
  

Sectional Chart

Flight Planning
at skyvector.com

Satellite Image

Google Maps Satellite view

 

Copyright © 2004-2018 Karl L. Swartz. All rights reserved.
The Great Circle Mapper name and logo are trademarks of the Great Circle Mapper.
All other trademarks mentioned herein belong to their respective owners.
Please see credits for attibutions and further copyright information.

  Follow gcmap on Facebook Follow gcmap on Twitter Follow gcmap on Google+ GCmap on LinkedIn

hCard Microformat

Geo Microformat